sensor_id;sensor_type;location;lat;lon;timestamp;temperature;humidity
21090;DHT22;10703;51.020;6.128;2023-03-13T07:05:25;14.20;99.90
21090;DHT22;10703;51.020;6.128;2023-03-13T07:07:51;14.20;99.90
21090;DHT22;10703;51.020;6.128;2023-03-13T07:10:18;14.30;99.90
21090;DHT22;10703;51.020;6.128;2023-03-13T07:12:45;14.40;99.90
21090;DHT22;10703;51.020;6.128;2023-03-13T07:15:11;14.20;99.90
21090;DHT22;10703;51.020;6.128;2023-03-13T08:38:33;14.40;99.90
21090;DHT22;10703;51.020;6.128;2023-03-13T09:22:39;15.00;99.90
21090;DHT22;10703;51.020;6.128;2023-03-13T09:25:06;14.90;99.90
21090;DHT22;10703;51.020;6.128;2023-03-13T09:27:32;14.70;99.90
21090;DHT22;10703;51.020;6.128;2023-03-13T09:29:59;14.80;99.90
21090;DHT22;10703;51.020;6.128;2023-03-13T09:32:26;15.30;99.90
21090;DHT22;10703;51.020;6.128;2023-03-13T09:34:52;16.10;99.90
21090;DHT22;10703;51.020;6.128;2023-03-13T09:37:19;16.30;99.90
21090;DHT22;10703;51.020;6.128;2023-03-13T09:39:46;16.50;99.90
21090;DHT22;10703;51.020;6.128;2023-03-13T09:42:15;16.80;99.90
21090;DHT22;10703;51.020;6.128;2023-03-13T09:44:54;17.30;99.90
21090;DHT22;10703;51.020;6.128;2023-03-13T09:47:30;16.80;99.90
21090;DHT22;10703;51.020;6.128;2023-03-13T09:50:14;16.90;99.90
21090;DHT22;10703;51.020;6.128;2023-03-13T09:52:43;17.40;99.90
21090;DHT22;10703;51.020;6.128;2023-03-13T10:00:15;17.70;99.90
21090;DHT22;10703;51.020;6.128;2023-03-13T10:03:11;17.50;99.90
21090;DHT22;10703;51.020;6.128;2023-03-13T10:05:48;16.80;99.90
21090;DHT22;10703;51.020;6.128;2023-03-13T10:13:32;16.40;99.90
21090;DHT22;10703;51.020;6.128;2023-03-13T10:16:10;17.00;99.90
21090;DHT22;10703;51.020;6.128;2023-03-13T10:18:37;16.70;99.90
21090;DHT22;10703;51.020;6.128;2023-03-13T10:21:17;16.70;99.90
21090;DHT22;10703;51.020;6.128;2023-03-13T10:24:01;16.70;99.90
21090;DHT22;10703;51.020;6.128;2023-03-13T10:26:35;17.00;99.90
21090;DHT22;10703;51.020;6.128;2023-03-13T10:29:22;17.10;99.90
21090;DHT22;10703;51.020;6.128;2023-03-13T10:34:21;17.20;99.90
21090;DHT22;10703;51.020;6.128;2023-03-13T10:36:53;17.40;99.90
21090;DHT22;10703;51.020;6.128;2023-03-13T10:39:22;17.20;99.90
21090;DHT22;10703;51.020;6.128;2023-03-13T10:41:50;17.00;99.90
21090;DHT22;10703;51.020;6.128;2023-03-13T10:44:23;16.90;99.90
21090;DHT22;10703;51.020;6.128;2023-03-13T10:46:59;16.40;99.90
21090;DHT22;10703;51.020;6.128;2023-03-13T10:49:27;16.60;99.90
21090;DHT22;10703;51.020;6.128;2023-03-13T10:52:02;16.60;99.90
21090;DHT22;10703;51.020;6.128;2023-03-13T10:54:32;17.20;99.90
21090;DHT22;10703;51.020;6.128;2023-03-13T10:59:51;17.70;99.90
21090;DHT22;10703;51.020;6.128;2023-03-13T11:04:57;18.30;99.90
21090;DHT22;10703;51.020;6.128;2023-03-13T11:07:32;18.30;99.90
21090;DHT22;10703;51.020;6.128;2023-03-13T11:10:00;18.30;99.90
21090;DHT22;10703;51.020;6.128;2023-03-13T11:12:28;17.90;99.90
21090;DHT22;10703;51.020;6.128;2023-03-13T11:14:59;17.90;99.90
21090;DHT22;10703;51.020;6.128;2023-03-13T11:17:34;18.90;99.90
21090;DHT22;10703;51.020;6.128;2023-03-13T11:22:59;19.70;99.90
21090;DHT22;10703;51.020;6.128;2023-03-13T11:28:49;18.90;99.90
21090;DHT22;10703;51.020;6.128;2023-03-13T11:31:20;18.60;99.90
21090;DHT22;10703;51.020;6.128;2023-03-13T11:36:59;17.80;99.90
21090;DHT22;10703;51.020;6.128;2023-03-13T11:42:45;17.60;99.90
21090;DHT22;10703;51.020;6.128;2023-03-13T11:56:57;17.50;99.90
21090;DHT22;10703;51.020;6.128;2023-03-13T12:02:28;17.40;99.90
21090;DHT22;10703;51.020;6.128;2023-03-13T12:05:00;17.20;99.90
21090;DHT22;10703;51.020;6.128;2023-03-13T12:07:46;18.00;99.90
21090;DHT22;10703;51.020;6.128;2023-03-13T12:10:18;17.10;99.90
21090;DHT22;10703;51.020;6.128;2023-03-13T12:13:26;17.90;99.90
21090;DHT22;10703;51.020;6.128;2023-03-13T12:15:53;18.50;99.90
21090;DHT22;10703;51.020;6.128;2023-03-13T12:18:40;17.90;99.90
21090;DHT22;10703;51.020;6.128;2023-03-13T12:21:20;16.90;99.90
21090;DHT22;10703;51.020;6.128;2023-03-13T12:23:49;17.10;99.90
21090;DHT22;10703;51.020;6.128;2023-03-13T12:26:19;18.20;99.90
21090;DHT22;10703;51.020;6.128;2023-03-13T12:34:04;17.80;99.90
21090;DHT22;10703;51.020;6.128;2023-03-13T12:36:40;17.90;99.90
21090;DHT22;10703;51.020;6.128;2023-03-13T12:44:47;18.70;99.90
21090;DHT22;10703;51.020;6.128;2023-03-13T12:55:46;18.30;99.90
21090;DHT22;10703;51.020;6.128;2023-03-13T12:58:29;17.50;99.90
21090;DHT22;10703;51.020;6.128;2023-03-13T13:01:01;17.20;99.90
21090;DHT22;10703;51.020;6.128;2023-03-13T13:03:36;17.10;99.90
21090;DHT22;10703;51.020;6.128;2023-03-13T13:06:12;16.70;99.90
21090;DHT22;10703;51.020;6.128;2023-03-13T13:09:00;16.80;99.90
21090;DHT22;10703;51.020;6.128;2023-03-13T13:14:01;18.00;99.90
21090;DHT22;10703;51.020;6.128;2023-03-13T13:16:32;19.20;99.90
21090;DHT22;10703;51.020;6.128;2023-03-13T13:24:59;17.70;99.90
21090;DHT22;10703;51.020;6.128;2023-03-13T13:30:49;18.80;99.90
21090;DHT22;10703;51.020;6.128;2023-03-13T13:32:55;17.90;99.90
21090;DHT22;10703;51.020;6.128;2023-03-13T13:35:33;17.30;99.90
21090;DHT22;10703;51.020;6.128;2023-03-13T13:38:25;17.20;99.90
21090;DHT22;10703;51.020;6.128;2023-03-13T13:48:45;17.30;99.90
21090;DHT22;10703;51.020;6.128;2023-03-13T13:53:48;16.80;99.90
21090;DHT22;10703;51.020;6.128;2023-03-13T13:56:33;16.80;99.90
21090;DHT22;10703;51.020;6.128;2023-03-13T13:59:29;16.40;99.90
21090;DHT22;10703;51.020;6.128;2023-03-13T14:04:35;16.90;99.90
21090;DHT22;10703;51.020;6.128;2023-03-13T14:07:04;16.60;99.90
21090;DHT22;10703;51.020;6.128;2023-03-13T14:09:57;16.50;99.90
21090;DHT22;10703;51.020;6.128;2023-03-13T14:12:36;16.50;99.90
21090;DHT22;10703;51.020;6.128;2023-03-13T14:17:47;16.60;99.90
21090;DHT22;10703;51.020;6.128;2023-03-13T14:23:09;16.60;99.90
21090;DHT22;10703;51.020;6.128;2023-03-13T14:25:47;16.60;99.90
21090;DHT22;10703;51.020;6.128;2023-03-13T14:28:26;16.80;99.90
21090;DHT22;10703;51.020;6.128;2023-03-13T14:30:55;16.40;99.90
21090;DHT22;10703;51.020;6.128;2023-03-13T14:33:24;16.60;99.90
21090;DHT22;10703;51.020;6.128;2023-03-13T14:35:54;16.50;99.90
21090;DHT22;10703;51.020;6.128;2023-03-13T14:38:25;16.90;99.90
21090;DHT22;10703;51.020;6.128;2023-03-13T14:40:53;16.10;99.90
21090;DHT22;10703;51.020;6.128;2023-03-13T14:45:51;16.50;99.90
21090;DHT22;10703;51.020;6.128;2023-03-13T14:48:32;16.10;99.90
21090;DHT22;10703;51.020;6.128;2023-03-13T14:51:03;16.10;99.90
21090;DHT22;10703;51.020;6.128;2023-03-13T14:53:56;16.00;99.90
21090;DHT22;10703;51.020;6.128;2023-03-13T14:59:15;16.10;99.90
21090;DHT22;10703;51.020;6.128;2023-03-13T15:01:42;16.10;99.90
21090;DHT22;10703;51.020;6.128;2023-03-13T15:04:09;16.00;99.90
21090;DHT22;10703;51.020;6.128;2023-03-13T15:06:36;16.00;99.90
21090;DHT22;10703;51.020;6.128;2023-03-13T15:11:44;17.80;99.90
21090;DHT22;10703;51.020;6.128;2023-03-13T15:14:38;18.30;99.90
21090;DHT22;10703;51.020;6.128;2023-03-13T15:17:15;18.00;99.90
21090;DHT22;10703;51.020;6.128;2023-03-13T15:19:44;18.20;99.90
21090;DHT22;10703;51.020;6.128;2023-03-13T15:22:14;18.50;99.90
21090;DHT22;10703;51.020;6.128;2023-03-13T15:24:42;18.50;99.90
21090;DHT22;10703;51.020;6.128;2023-03-13T15:27:29;18.70;99.90
21090;DHT22;10703;51.020;6.128;2023-03-13T15:29:56;18.50;99.90
21090;DHT22;10703;51.020;6.128;2023-03-13T15:32:26;18.50;99.90
21090;DHT22;10703;51.020;6.128;2023-03-13T15:34:54;18.40;99.90
21090;DHT22;10703;51.020;6.128;2023-03-13T15:37:28;17.90;99.90
21090;DHT22;10703;51.020;6.128;2023-03-13T15:39:55;18.20;99.90
21090;DHT22;10703;51.020;6.128;2023-03-13T15:42:23;18.30;99.90
21090;DHT22;10703;51.020;6.128;2023-03-13T15:44:50;18.10;99.90
21090;DHT22;10703;51.020;6.128;2023-03-13T15:47:19;19.00;99.90
21090;DHT22;10703;51.020;6.128;2023-03-13T15:49:46;18.50;99.90
21090;DHT22;10703;51.020;6.128;2023-03-13T15:52:18;17.90;99.90
21090;DHT22;10703;51.020;6.128;2023-03-13T15:54:48;17.90;99.90
21090;DHT22;10703;51.020;6.128;2023-03-13T15:57:18;18.10;99.90
21090;DHT22;10703;51.020;6.128;2023-03-13T15:59:46;17.50;99.90
21090;DHT22;10703;51.020;6.128;2023-03-13T16:02:21;17.70;99.90
21090;DHT22;10703;51.020;6.128;2023-03-13T16:04:49;18.10;99.90
21090;DHT22;10703;51.020;6.128;2023-03-13T16:07:18;18.40;99.90
21090;DHT22;10703;51.020;6.128;2023-03-13T16:09:46;17.90;99.90
21090;DHT22;10703;51.020;6.128;2023-03-13T16:12:13;17.10;99.90
21090;DHT22;10703;51.020;6.128;2023-03-13T16:14:40;16.00;99.90
21090;DHT22;10703;51.020;6.128;2023-03-13T16:17:18;16.00;99.90
21090;DHT22;10703;51.020;6.128;2023-03-13T16:19:46;16.40;99.90
21090;DHT22;10703;51.020;6.128;2023-03-13T16:22:13;15.70;99.90
21090;DHT22;10703;51.020;6.128;2023-03-13T16:24:40;16.70;99.90
21090;DHT22;10703;51.020;6.128;2023-03-13T16:27:15;15.50;99.90
21090;DHT22;10703;51.020;6.128;2023-03-13T16:29:44;15.50;99.90
21090;DHT22;10703;51.020;6.128;2023-03-13T16:32:13;15.60;99.90
21090;DHT22;10703;51.020;6.128;2023-03-13T16:34:40;15.60;99.90
21090;DHT22;10703;51.020;6.128;2023-03-13T16:37:16;15.40;99.90
21090;DHT22;10703;51.020;6.128;2023-03-13T16:39:44;15.30;99.90
21090;DHT22;10703;51.020;6.128;2023-03-13T16:42:11;16.10;99.90
21090;DHT22;10703;51.020;6.128;2023-03-13T16:44:38;15.30;99.90
21090;DHT22;10703;51.020;6.128;2023-03-13T16:47:49;15.20;99.90
21090;DHT22;10703;51.020;6.128;2023-03-13T16:50:32;15.10;99.90
21090;DHT22;10703;51.020;6.128;2023-03-13T16:53:00;15.20;99.90
21090;DHT22;10703;51.020;6.128;2023-03-13T16:55:27;15.40;99.90
21090;DHT22;10703;51.020;6.128;2023-03-13T16:57:55;15.30;99.90
21090;DHT22;10703;51.020;6.128;2023-03-13T17:00:23;15.10;99.90
21090;DHT22;10703;51.020;6.128;2023-03-13T17:02:50;15.00;99.90
21090;DHT22;10703;51.020;6.128;2023-03-13T17:05:17;15.00;99.90
21090;DHT22;10703;51.020;6.128;2023-03-13T17:07:47;15.00;99.90
21090;DHT22;10703;51.020;6.128;2023-03-13T17:10:28;15.20;99.90
21090;DHT22;10703;51.020;6.128;2023-03-13T17:12:55;14.90;99.90
21090;DHT22;10703;51.020;6.128;2023-03-13T17:15:24;16.00;99.90
21090;DHT22;10703;51.020;6.128;2023-03-13T17:17:51;15.00;99.90
21090;DHT22;10703;51.020;6.128;2023-03-13T17:20:25;14.90;99.90
21090;DHT22;10703;51.020;6.128;2023-03-13T17:22:53;14.90;99.90
21090;DHT22;10703;51.020;6.128;2023-03-13T17:25:22;15.00;99.90
21090;DHT22;10703;51.020;6.128;2023-03-13T17:27:48;14.80;99.90
21090;DHT22;10703;51.020;6.128;2023-03-13T17:30:26;14.80;99.90
21090;DHT22;10703;51.020;6.128;2023-03-13T17:32:53;14.80;99.90
21090;DHT22;10703;51.020;6.128;2023-03-13T17:35:20;14.60;99.90
21090;DHT22;10703;51.020;6.128;2023-03-13T17:37:47;14.60;99.90
21090;DHT22;10703;51.020;6.128;2023-03-13T17:40:23;14.70;99.90
21090;DHT22;10703;51.020;6.128;2023-03-13T17:42:50;14.60;99.90
21090;DHT22;10703;51.020;6.128;2023-03-13T17:45:17;14.60;99.90
21090;DHT22;10703;51.020;6.128;2023-03-13T17:47:44;14.50;99.90
21090;DHT22;10703;51.020;6.128;2023-03-13T17:50:16;14.50;99.90
21090;DHT22;10703;51.020;6.128;2023-03-13T17:52:43;14.50;99.90
21090;DHT22;10703;51.020;6.128;2023-03-13T17:55:10;15.30;99.90
21090;DHT22;10703;51.020;6.128;2023-03-13T17:57:37;14.30;99.90
21090;DHT22;10703;51.020;6.128;2023-03-13T18:00:19;14.20;99.90
21090;DHT22;10703;51.020;6.128;2023-03-13T18:02:46;14.30;99.90
21090;DHT22;10703;51.020;6.128;2023-03-13T18:05:13;14.30;99.90
21090;DHT22;10703;51.020;6.128;2023-03-13T18:07:39;14.30;99.90
21090;DHT22;10703;51.020;6.128;2023-03-13T18:10:24;14.40;99.90
21090;DHT22;10703;51.020;6.128;2023-03-13T18:12:51;14.30;99.90
21090;DHT22;10703;51.020;6.128;2023-03-13T18:15:19;14.20;99.90
21090;DHT22;10703;51.020;6.128;2023-03-13T18:17:46;14.20;99.90
21090;DHT22;10703;51.020;6.128;2023-03-13T18:20:16;14.20;99.90
21090;DHT22;10703;51.020;6.128;2023-03-13T18:22:43;14.10;99.90
21090;DHT22;10703;51.020;6.128;2023-03-13T18:25:10;14.00;99.90
21090;DHT22;10703;51.020;6.128;2023-03-13T18:27:38;14.00;99.90
21090;DHT22;10703;51.020;6.128;2023-03-13T18:30:17;14.10;99.90
21090;DHT22;10703;51.020;6.128;2023-03-13T18:32:44;14.00;99.90
21090;DHT22;10703;51.020;6.128;2023-03-13T18:35:11;14.00;99.90
21090;DHT22;10703;51.020;6.128;2023-03-13T18:37:43;14.00;99.90
21090;DHT22;10703;51.020;6.128;2023-03-13T18:40:47;14.00;99.90
21090;DHT22;10703;51.020;6.128;2023-03-13T18:43:06;13.90;99.90
21090;DHT22;10703;51.020;6.128;2023-03-13T18:45:33;14.00;99.90
21090;DHT22;10703;51.020;6.128;2023-03-13T18:47:59;14.00;99.90
21090;DHT22;10703;51.020;6.128;2023-03-13T18:50:31;14.00;99.90
21090;DHT22;10703;51.020;6.128;2023-03-13T18:52:58;14.00;99.90
21090;DHT22;10703;51.020;6.128;2023-03-13T18:55:27;13.90;99.90
21090;DHT22;10703;51.020;6.128;2023-03-13T18:57:55;13.90;99.90
21090;DHT22;10703;51.020;6.128;2023-03-13T19:00:27;13.90;99.90
21090;DHT22;10703;51.020;6.128;2023-03-13T19:02:54;13.90;99.90
21090;DHT22;10703;51.020;6.128;2023-03-13T19:05:21;13.70;99.90
21090;DHT22;10703;51.020;6.128;2023-03-13T19:07:48;13.80;99.90
21090;DHT22;10703;51.020;6.128;2023-03-13T19:10:26;13.70;99.90
21090;DHT22;10703;51.020;6.128;2023-03-13T19:12:54;13.70;99.90
21090;DHT22;10703;51.020;6.128;2023-03-13T19:15:23;13.60;99.90
21090;DHT22;10703;51.020;6.128;2023-03-13T19:17:51;13.60;99.90
21090;DHT22;10703;51.020;6.128;2023-03-13T19:20:21;13.50;99.90
21090;DHT22;10703;51.020;6.128;2023-03-13T19:22:48;13.50;99.90
21090;DHT22;10703;51.020;6.128;2023-03-13T19:25:15;13.40;99.90
21090;DHT22;10703;51.020;6.128;2023-03-13T19:27:46;13.40;99.90
21090;DHT22;10703;51.020;6.128;2023-03-13T19:30:21;13.40;99.90
21090;DHT22;10703;51.020;6.128;2023-03-13T19:32:48;13.40;99.90
21090;DHT22;10703;51.020;6.128;2023-03-13T19:35:15;13.40;99.90
21090;DHT22;10703;51.020;6.128;2023-03-13T19:37:44;13.30;99.90
21090;DHT22;10703;51.020;6.128;2023-03-13T19:40:16;13.20;99.90
21090;DHT22;10703;51.020;6.128;2023-03-13T19:42:43;13.20;99.90
21090;DHT22;10703;51.020;6.128;2023-03-13T19:45:10;12.90;99.90
21090;DHT22;10703;51.020;6.128;2023-03-13T19:47:37;12.80;99.90
21090;DHT22;10703;51.020;6.128;2023-03-13T19:50:05;12.80;99.90
21090;DHT22;10703;51.020;6.128;2023-03-13T19:52:31;12.80;99.90
21090;DHT22;10703;51.020;6.128;2023-03-13T19:54:58;12.90;99.90
21090;DHT22;10703;51.020;6.128;2023-03-13T19:57:30;12.70;99.90
21090;DHT22;10703;51.020;6.128;2023-03-13T19:59:57;12.60;99.90
21090;DHT22;10703;51.020;6.128;2023-03-13T20:02:23;12.50;99.90
21090;DHT22;10703;51.020;6.128;2023-03-13T20:04:50;12.40;99.90
21090;DHT22;10703;51.020;6.128;2023-03-13T20:07:17;12.50;99.90
21090;DHT22;10703;51.020;6.128;2023-03-13T20:09:43;12.40;99.90
21090;DHT22;10703;51.020;6.128;2023-03-13T20:12:10;13.30;99.90
21090;DHT22;10703;51.020;6.128;2023-03-13T20:14:36;12.30;99.90
21090;DHT22;10703;51.020;6.128;2023-03-13T20:17:03;13.00;99.90
21090;DHT22;10703;51.020;6.128;2023-03-13T20:19:30;12.20;99.90
21090;DHT22;10703;51.020;6.128;2023-03-13T20:21:57;12.20;99.90
21090;DHT22;10703;51.020;6.128;2023-03-13T20:24:31;12.20;99.90
21090;DHT22;10703;51.020;6.128;2023-03-13T20:27:02;12.20;99.90
21090;DHT22;10703;51.020;6.128;2023-03-13T20:29:28;12.20;99.90
21090;DHT22;10703;51.020;6.128;2023-03-13T20:31:55;12.20;99.90
21090;DHT22;10703;51.020;6.128;2023-03-13T20:34:26;12.20;99.90
21090;DHT22;10703;51.020;6.128;2023-03-13T20:36:52;12.10;99.90
21090;DHT22;10703;51.020;6.128;2023-03-13T20:39:22;12.10;99.90
21090;DHT22;10703;51.020;6.128;2023-03-13T20:41:49;12.00;99.90
21090;DHT22;10703;51.020;6.128;2023-03-13T20:44:15;12.00;99.90
21090;DHT22;10703;51.020;6.128;2023-03-13T20:46:42;11.90;99.90
21090;DHT22;10703;51.020;6.128;2023-03-13T20:49:09;11.90;99.90
21090;DHT22;10703;51.020;6.128;2023-03-13T20:51:35;11.90;99.90
21090;DHT22;10703;51.020;6.128;2023-03-13T20:54:02;11.90;99.90
21090;DHT22;10703;51.020;6.128;2023-03-13T20:56:29;12.00;99.90
21090;DHT22;10703;51.020;6.128;2023-03-13T20:58:55;12.00;99.90
21090;DHT22;10703;51.020;6.128;2023-03-13T21:01:22;12.00;99.90
21090;DHT22;10703;51.020;6.128;2023-03-13T21:03:50;12.10;99.90
21090;DHT22;10703;51.020;6.128;2023-03-13T21:06:17;11.90;99.90
21090;DHT22;10703;51.020;6.128;2023-03-13T21:08:45;12.10;99.90
21090;DHT22;10703;51.020;6.128;2023-03-13T21:11:17;11.90;99.90
21090;DHT22;10703;51.020;6.128;2023-03-13T21:13:44;11.90;99.90
21090;DHT22;10703;51.020;6.128;2023-03-13T21:16:12;11.90;99.90
21090;DHT22;10703;51.020;6.128;2023-03-13T21:18:39;12.00;99.90
21090;DHT22;10703;51.020;6.128;2023-03-13T21:21:15;12.20;99.90
21090;DHT22;10703;51.020;6.128;2023-03-13T21:23:43;12.10;99.90
21090;DHT22;10703;51.020;6.128;2023-03-13T21:26:10;12.10;99.90
21090;DHT22;10703;51.020;6.128;2023-03-13T21:28:38;12.00;99.90
21090;DHT22;10703;51.020;6.128;2023-03-13T21:31:16;11.90;99.90
21090;DHT22;10703;51.020;6.128;2023-03-13T21:33:44;11.90;99.90
21090;DHT22;10703;51.020;6.128;2023-03-13T21:36:13;11.90;99.90
21090;DHT22;10703;51.020;6.128;2023-03-13T21:38:40;11.80;99.90
21090;DHT22;10703;51.020;6.128;2023-03-13T21:41:12;11.60;99.90
21090;DHT22;10703;51.020;6.128;2023-03-13T21:43:40;11.70;99.90
21090;DHT22;10703;51.020;6.128;2023-03-13T21:46:09;11.60;99.90
21090;DHT22;10703;51.020;6.128;2023-03-13T21:48:37;11.70;99.90
21090;DHT22;10703;51.020;6.128;2023-03-13T21:51:05;11.60;99.90
21090;DHT22;10703;51.020;6.128;2023-03-13T21:53:32;11.70;99.90
21090;DHT22;10703;51.020;6.128;2023-03-13T21:55:59;11.70;99.90
21090;DHT22;10703;51.020;6.128;2023-03-13T21:58:26;11.70;99.90
21090;DHT22;10703;51.020;6.128;2023-03-13T22:00:56;11.60;99.90
21090;DHT22;10703;51.020;6.128;2023-03-13T22:03:24;11.80;99.90
21090;DHT22;10703;51.020;6.128;2023-03-13T22:05:54;11.70;99.90
21090;DHT22;10703;51.020;6.128;2023-03-13T22:08:20;11.50;99.90
21090;DHT22;10703;51.020;6.128;2023-03-13T22:10:48;11.40;99.90
21090;DHT22;10703;51.020;6.128;2023-03-13T22:13:16;11.40;99.90
21090;DHT22;10703;51.020;6.128;2023-03-13T22:15:43;11.50;99.90
21090;DHT22;10703;51.020;6.128;2023-03-13T22:18:12;11.50;99.90
21090;DHT22;10703;51.020;6.128;2023-03-13T22:20:40;11.40;99.90
21090;DHT22;10703;51.020;6.128;2023-03-13T22:23:07;11.40;99.90
21090;DHT22;10703;51.020;6.128;2023-03-13T22:25:42;11.30;99.90
21090;DHT22;10703;51.020;6.128;2023-03-13T22:28:10;11.30;99.90
21090;DHT22;10703;51.020;6.128;2023-03-13T22:30:38;11.30;99.90
21090;DHT22;10703;51.020;6.128;2023-03-13T22:33:05;11.20;99.90
21090;DHT22;10703;51.020;6.128;2023-03-13T22:35:33;11.20;99.90
21090;DHT22;10703;51.020;6.128;2023-03-13T22:38:00;11.20;99.90
21090;DHT22;10703;51.020;6.128;2023-03-13T22:40:27;11.20;99.90
21090;DHT22;10703;51.020;6.128;2023-03-13T22:42:53;11.20;99.90
21090;DHT22;10703;51.020;6.128;2023-03-13T22:45:20;11.20;99.90
21090;DHT22;10703;51.020;6.128;2023-03-13T22:47:47;11.20;99.90
21090;DHT22;10703;51.020;6.128;2023-03-13T22:50:14;11.30;99.90
21090;DHT22;10703;51.020;6.128;2023-03-13T22:52:41;11.20;99.90
21090;DHT22;10703;51.020;6.128;2023-03-13T22:55:08;11.20;99.90
21090;DHT22;10703;51.020;6.128;2023-03-13T22:57:34;11.40;99.90
21090;DHT22;10703;51.020;6.128;2023-03-13T23:00:02;11.40;99.90
21090;DHT22;10703;51.020;6.128;2023-03-13T23:02:30;11.50;99.90
21090;DHT22;10703;51.020;6.128;2023-03-13T23:04:57;11.60;99.90
21090;DHT22;10703;51.020;6.128;2023-03-13T23:07:27;11.60;99.90
21090;DHT22;10703;51.020;6.128;2023-03-13T23:09:55;11.80;99.90
21090;DHT22;10703;51.020;6.128;2023-03-13T23:12:22;11.80;99.90
21090;DHT22;10703;51.020;6.128;2023-03-13T23:14:50;12.00;99.90
21090;DHT22;10703;51.020;6.128;2023-03-13T23:17:17;12.00;99.90
21090;DHT22;10703;51.020;6.128;2023-03-13T23:19:44;12.00;99.90
21090;DHT22;10703;51.020;6.128;2023-03-13T23:22:10;12.10;99.90
21090;DHT22;10703;51.020;6.128;2023-03-13T23:24:43;12.10;99.90
21090;DHT22;10703;51.020;6.128;2023-03-13T23:27:10;12.10;99.90
21090;DHT22;10703;51.020;6.128;2023-03-13T23:29:36;12.00;99.90
21090;DHT22;10703;51.020;6.128;2023-03-13T23:32:03;12.10;99.90
21090;DHT22;10703;51.020;6.128;2023-03-13T23:34:29;12.20;99.90
21090;DHT22;10703;51.020;6.128;2023-03-13T23:36:56;12.20;99.90
21090;DHT22;10703;51.020;6.128;2023-03-13T23:39:23;12.30;99.90
21090;DHT22;10703;51.020;6.128;2023-03-13T23:41:50;12.30;99.90
21090;DHT22;10703;51.020;6.128;2023-03-13T23:44:16;12.30;99.90
21090;DHT22;10703;51.020;6.128;2023-03-13T23:46:43;12.30;99.90
21090;DHT22;10703;51.020;6.128;2023-03-13T23:49:09;12.10;99.90
21090;DHT22;10703;51.020;6.128;2023-03-13T23:51:38;11.70;99.90
21090;DHT22;10703;51.020;6.128;2023-03-13T23:54:04;11.40;99.90
21090;DHT22;10703;51.020;6.128;2023-03-13T23:56:31;11.20;99.90
21090;DHT22;10703;51.020;6.128;2023-03-13T23:58:58;11.10;99.90
